• Join FlightAware (Why Join?)
  • Login
  • US Flag 
11:57PM EDT


 

Airport Tracker/Info


-or-


 

Live Flight TrackerFlight Track Log ✈ DAL3606 ✈ 27-Apr-2013 ✈ KMSP - KCVG

Flight Track Log - Related Links

Times and Time Zones

All times are in EDT time to prevent confusion due to time zone crossing. See the DAL3606 flight status page for this flight to view local times or setup timezone preferences in your user account.

Time Position Orientation Groundspeed Altitude Reporting Facility
EDT Latitude Longitude Course Direction KTS MPH feet Rate Location/Type
11:23AM 44.8333 -93.2167 130° Southeast 173 199 2,400  Level Minneapolis TRACON
11:24AM 44.8217 -93.1986 132° Southeast 192 221 3,000 2,040 Climbing Minneapolis Center
11:25AM 44.7742 -93.1342 136° Southeast 233 268 5,400 2,520 Climbing Minneapolis Center
11:26AM 44.5796 -92.7104 141° Southeast  Level Estimated
11:26AM 44.7239 -93.0517 131° Southeast 273 314 8,200  Level Minneapolis Center
11:27AM 44.5037 -92.5834 133° Southeast  Level Estimated
11:27AM 44.6697 -92.9653 131° Southeast 292 336 10,600  Level Minneapolis Center
11:28AM 44.4276 -92.4568 120° Southeast  Level Estimated
11:28AM 44.6083 -92.8686 132° Southeast 337 388 11,800  Level Minneapolis Center
11:29AM 44.3576 -92.3408 130° Southeast  Level Estimated
11:29AM 44.5417 -92.7636 132° Southeast 359 413 13,400  Level Minneapolis Center
11:30AM 44.4719 -92.6544 132° Southeast 376 433 14,800 1,140 Climbing Minneapolis Center
11:31AM 44.4003 -92.5397 131° Southeast 391 450 15,800 1,140 Climbing Minneapolis Center
11:32AM 44.3119 -92.3989 131° Southeast 403 464 17,400 1,260 Climbing Minneapolis Center
11:33AM 44.2242 -92.2622 132° Southeast 395 455 18,700 1,020 Climbing Minneapolis Center
11:35AM 44.1500 -92.1475 132° Southeast 397 457 19,800 1,020 Climbing Minneapolis Center
11:36AM 44.0597 -92.0025 131° Southeast 410 472 21,000 1,080 Climbing Minneapolis Center
11:37AM 43.9808 -91.8839 133° Southeast 417 480 22,100 1,140 Climbing Minneapolis Center
11:38AM 43.9050 -91.7636 131° Southeast 417 480 23,400 1,260 Climbing Minneapolis Center
11:39AM 43.8150 -91.6222 131° Southeast 414 476 24,700 1,020 Climbing Minneapolis Center
11:40AM 43.7381 -91.5042 132° Southeast 415 478 25,600 840 Climbing Minneapolis Center
11:41AM 43.6606 -91.3856 132° Southeast 416 479 26,500 780 Climbing Minneapolis Center
11:42AM 43.5828 -91.2658 132° Southeast 418 481 27,300 720 Climbing Minneapolis Center
11:43AM 43.5050 -91.1464 132° Southeast 420 483 28,100 780 Climbing Minneapolis Center
11:44AM 43.4253 -91.0267 132° Southeast 423 487 28,900 420 Climbing Minneapolis Center
11:45AM 43.3461 -90.9072 132° Southeast 423 487 29,000  Climbing Minneapolis Center
11:46AM 43.2472 -90.7606 133° Southeast 433 498 29,000  Level Minneapolis Center
11:47AM 43.1636 -90.6356 132° Southeast 442 509 29,000  Level Minneapolis Center
11:48AM 43.0961 -90.5353 133° Southeast 453 521 29,000  Level Chicago Center
11:49AM 42.9958 -90.3847 132° Southeast 449 517 29,000  Level Chicago Center
11:50AM 42.9114 -90.2589 132° Southeast 450 518 29,000  Level Chicago Center
11:51AM 42.8272 -90.1347 133° Southeast 449 517 29,000  Level Chicago Center
11:52AM 42.7408 -90.0111 134° Southeast 452 520 29,000  Level Chicago Center
11:53AM 42.6475 -89.8744 133° Southeast 446 513 29,000  Level Chicago Center
11:54AM 42.5636 -89.7528 133° Southeast 443 510 29,000  Level Chicago Center
11:55AM 42.4783 -89.6300 133° Southeast 446 513 29,000  Level Chicago Center
11:56AM 42.3939 -89.5106 134° Southeast 441 507 29,000  Level Chicago Center
11:57AM 42.3092 -89.3889 133° Southeast 443 510 29,000  Level Chicago Center
11:58AM 42.2250 -89.2669 133° Southeast 444 511 29,000  Level Chicago Center
11:59AM 42.1269 -89.1289 134° Southeast 439 505 29,000  Level Chicago Center
12:00PM 42.0397 -89.0064 134° Southeast 444 511 29,000  Level Chicago Center
12:01PM 41.9544 -88.8864 134° Southeast 445 512 29,000  Level Chicago Center
12:02PM 41.8678 -88.7664 134° Southeast 448 516 29,000  Level Chicago Center
12:03PM 41.7781 -88.6478 135° Southeast 453 521 29,000  Level Chicago Center
12:04PM 41.6894 -88.5294 135° Southeast 453 521 29,000  Level Chicago Center
12:05PM 41.5992 -88.4111 136° Southeast 458 527 29,000  Level Chicago Center
12:06PM 41.4914 -88.2694 135° Southeast 457 526 29,000  Level Chicago Center
12:07PM 41.4017 -88.1506 135° Southeast 458 527 29,000  Level Chicago Center
12:08PM 41.3156 -88.0419 137° Southeast 460 529 29,000  Level Chicago Center
12:09PM 41.2089 -87.9011 135° Southeast 458 527 29,000  Level Chicago Center
12:10PM 41.1192 -87.7850 136° Southeast 455 524 29,000  Level Chicago Center
12:11PM 41.0283 -87.6675 136° Southeast 458 527 29,000  Level Chicago Center
12:12PM 40.9383 -87.5531 136° Southeast 453 521 29,000  Level Chicago Center
12:14PM 40.8511 -87.4403 136° Southeast 442 509 29,000  Level Chicago Center
12:15PM 40.7594 -87.3267 137° Southeast 454 522 29,000  Level Chicago Center
12:16PM 40.6503 -87.1881 136° Southeast 457 526 29,000 -540 Level Chicago Center
12:17PM 40.5583 -87.0758 137° Southeast 463 533 28,000 -1,020 Descending Chicago Center
12:18PM 40.4467 -87.0022 153° Southeast 445 512 27,000 -540 Descending Chicago Center
12:19PM 40.3397 -86.9183 149° Southeast 447 514 27,000  Level Chicago Center
12:20PM 40.2417 -86.8122 140° Southeast 454 522 27,000  Level Chicago Center
12:21PM 40.1431 -86.7103 142° Southeast 451 519 27,000 -480 Level Chicago Center
12:21PM 40.0747 -86.6389 141° Southeast 455 524 26,300 -1,680 Descending Indianapolis Center
12:22PM 39.9753 -86.5367 142° Southeast 453 521 24,300 -1,980 Descending Indianapolis Center
12:23PM 39.8794 -86.4372 141° Southeast 440 506 22,300 -1,980 Descending Indianapolis Center
12:24PM 39.8039 -86.3306 133° Southeast 405 466 20,300 -2,100 Descending Indianapolis Center
12:25PM 39.7567 -86.1908 114° Southeast 399 459 18,100 -1,980 Descending Indianapolis Center
12:27PM 39.7167 -86.0500 110° East 375 432 16,200 -1,860 Descending Indianapolis TRACON
12:27PM 39.6719 -85.9428 118° Southeast 367 422 14,400 -1,140 Descending Indianapolis Center
12:28PM 39.6322 -85.8256 114° Southeast 355 409 14,000 -300 Descending Indianapolis Center
12:29PM 39.5914 -85.7039 114° Southeast 363 418 13,900 -900 Descending Indianapolis Center
12:31PM 39.5519 -85.5856 113° Southeast 358 412 12,200 -1,440 Descending Indianapolis Center
12:32PM 39.5108 -85.4722 115° Southeast 347 399 11,000 -600 Descending Indianapolis Center
12:33PM 39.4650 -85.3611 118° Southeast 349 402 11,000 -480 Level Indianapolis Center
12:34PM 39.4225 -85.2331 113° Southeast 330 380 10,100 -1,200 Descending Indianapolis Center
12:35PM 39.3903 -85.1439 115° Southeast 277 319 8,600 -1,680 Descending Indianapolis Center
12:36PM 39.3614 -85.0594 114° Southeast 259 298 6,700 -1,740 Descending Indianapolis Center
12:37PM 39.3328 -84.9772 114° Southeast 251 289 5,100 -840 Descending Indianapolis Center
12:38PM 39.3042 -84.8972 115° Southeast 245 282 5,000 -60 Descending Indianapolis Center
12:39PM 39.2833 -84.8167 108° East 247 284 5,000 -780 Level Cincinnati TRACON
12:40PM 39.2500 -84.7333 117° Southeast 245 282 3,600 -1,020 Descending Cincinnati TRACON
12:41PM 39.2167 -84.6833 131° Southeast 205 236 3,000 -600 Descending Cincinnati TRACON